Time;durP1;ratioP1;P1;durP2;ratioP2;P2;SDS_P1;SDS_P2;PMS_P1;PMS_P2;Temp;Humidity;BMP_temperature;BMP_pressure;BME280_temperature;BME280_humidity;BME280_pressure;Samples;Min_cycle;Max_cycle;Signal;HPM_P1;HPM_P2
2024/01/30 00:00:33;;;;;;;12.00;11.40;;;5.20;99.90;;;;;;5076946;28;20223;-67
2024/01/30 00:03:02;;;;;;;11.97;11.57;;;5.20;99.90;;;;;;5072617;28;20200;-64
2024/01/30 00:05:28;;;;;;;12.00;11.57;;;5.20;99.90;;;;;;5075337;28;20661;-65
2024/01/30 00:07:55;;;;;;;12.27;11.80;;;5.20;99.90;;;;;;5077115;28;20230;-65
2024/01/30 00:10:22;;;;;;;11.57;11.17;;;5.20;99.90;;;;;;5090179;28;20294;-68
2024/01/30 00:12:48;;;;;;;11.67;11.27;;;5.20;99.90;;;;;;5087852;28;20203;-65
2024/01/30 00:15:15;;;;;;;11.80;11.30;;;5.20;99.90;;;;;;5084701;28;20209;-65
2024/01/30 00:17:42;;;;;;;11.93;11.50;;;5.20;99.90;;;;;;5071936;28;20231;-65
2024/01/30 00:20:11;;;;;;;11.63;11.23;;;5.20;99.90;;;;;;5072838;28;20195;-65
2024/01/30 00:22:38;;;;;;;11.83;11.33;;;5.20;99.90;;;;;;5072438;28;20214;-65
2024/01/30 00:25:06;;;;;;;11.30;10.90;;;5.10;99.90;;;;;;5073110;28;20199;-67
2024/01/30 00:27:32;;;;;;;11.93;11.53;;;5.20;99.90;;;;;;5072755;28;20266;-64
2024/01/30 00:29:59;;;;;;;11.87;11.47;;;5.20;99.90;;;;;;5072227;28;20693;-64
2024/01/30 00:32:26;;;;;;;12.13;11.63;;;5.20;99.90;;;;;;5071319;28;20641;-66
2024/01/30 00:34:53;;;;;;;11.57;11.17;;;5.30;99.90;;;;;;5072417;28;20218;-65
2024/01/30 00:37:21;;;;;;;11.97;11.50;;;5.30;99.90;;;;;;5071955;28;20611;-65
2024/01/30 00:39:47;;;;;;;11.73;11.33;;;5.20;99.90;;;;;;5077420;28;20217;-66
2024/01/30 00:42:14;;;;;;;12.20;11.70;;;5.20;99.90;;;;;;5070262;28;20553;-64
2024/01/30 00:44:41;;;;;;;11.97;11.57;;;5.20;99.90;;;;;;5070821;28;20199;-65
2024/01/30 00:47:07;;;;;;;11.63;11.23;;;5.20;99.90;;;;;;5070443;28;20713;-65
2024/01/30 00:49:34;;;;;;;12.23;11.73;;;5.20;99.90;;;;;;5068966;28;20195;-65
2024/01/30 00:52:01;;;;;;;11.77;11.37;;;5.10;99.90;;;;;;5068777;28;20575;-65
2024/01/30 00:54:30;;;;;;;11.57;11.17;;;5.10;99.90;;;;;;5070172;28;20863;-65
2024/01/30 00:56:56;;;;;;;11.67;11.27;;;5.10;99.90;;;;;;5070351;28;20227;-65
2024/01/30 00:59:23;;;;;;;11.80;11.40;;;5.10;99.90;;;;;;5070286;28;20693;-65
2024/01/30 01:01:50;;;;;;;11.87;11.47;;;5.10;99.90;;;;;;5069339;28;20210;-64
2024/01/30 01:04:16;;;;;;;11.77;11.37;;;5.10;99.90;;;;;;5070307;28;20208;-65
2024/01/30 01:06:43;;;;;;;11.25;10.75;;;5.10;99.90;;;;;;5070239;28;20314;-65
2024/01/30 01:09:11;;;;;;;11.40;11.00;;;5.10;99.90;;;;;;5069879;28;20199;-66
2024/01/30 01:11:39;;;;;;;12.17;11.77;;;5.20;99.90;;;;;;5069122;28;20218;-64
2024/01/30 01:14:06;;;;;;;12.10;11.60;;;5.20;99.90;;;;;;5070265;28;20587;-67
2024/01/30 01:16:32;;;;;;;11.83;11.43;;;5.20;99.90;;;;;;5069995;28;20231;-65
2024/01/30 01:19:00;;;;;;;11.93;11.53;;;5.20;99.90;;;;;;5067908;28;20634;-65
2024/01/30 01:21:26;;;;;;;12.27;11.80;;;5.20;99.90;;;;;;5068955;28;20208;-65
2024/01/30 01:23:54;;;;;;;11.63;11.23;;;5.20;99.90;;;;;;5072922;28;20211;-68
2024/01/30 01:26:21;;;;;;;12.30;11.80;;;5.20;99.90;;;;;;5071718;28;20204;-65
2024/01/30 01:28:49;;;;;;;11.57;11.17;;;5.10;99.90;;;;;;5069575;28;20196;-65
2024/01/30 01:31:17;;;;;;;11.82;11.43;;;5.10;99.90;;;;;;5065863;28;20209;-65
2024/01/30 01:33:44;;;;;;;11.70;11.30;;;5.10;99.90;;;;;;5069454;28;20207;-65
2024/01/30 01:36:10;;;;;;;12.03;11.53;;;5.10;99.90;;;;;;5069332;28;20222;-65
2024/01/30 01:38:37;;;;;;;11.83;11.43;;;5.20;99.90;;;;;;5069558;28;20654;-66
2024/01/30 01:41:04;;;;;;;11.97;11.47;;;5.20;99.90;;;;;;5069163;28;20204;-64
2024/01/30 01:43:31;;;;;;;11.33;10.93;;;5.20;99.90;;;;;;5067834;28;20199;-65
2024/01/30 01:45:59;;;;;;;12.17;11.67;;;5.20;99.90;;;;;;5069369;28;20195;-67
2024/01/30 01:48:27;;;;;;;12.43;11.93;;;5.20;99.90;;;;;;5069508;28;20223;-64
2024/01/30 01:50:54;;;;;;;13.63;13.02;;;5.20;99.90;;;;;;5068037;28;20241;-65
2024/01/30 01:53:21;;;;;;;12.20;11.70;;;5.20;99.90;;;;;;5069959;28;20666;-65
2024/01/30 01:55:48;;;;;;;12.17;11.67;;;5.20;99.90;;;;;;5068964;28;20206;-67
2024/01/30 01:58:15;;;;;;;11.73;11.33;;;5.10;99.90;;;;;;5069266;28;20223;-65
2024/01/30 02:00:42;;;;;;;12.38;11.88;;;5.10;99.90;;;;;;5068874;28;20206;-66
2024/01/30 02:03:11;;;;;;;12.37;11.87;;;5.10;99.90;;;;;;5067071;28;20231;-66
2024/01/30 02:05:39;;;;;;;12.20;11.70;;;5.00;99.90;;;;;;5075006;28;20225;-66
2024/01/30 02:08:06;;;;;;;12.40;11.90;;;4.90;99.90;;;;;;5081431;28;20227;-67
2024/01/30 02:10:33;;;;;;;12.17;11.70;;;4.90;99.90;;;;;;5080352;28;20226;-66
2024/01/30 02:13:01;;;;;;;11.60;11.20;;;4.90;99.90;;;;;;5079117;28;20223;-64
2024/01/30 02:15:29;;;;;;;12.03;11.53;;;4.90;99.90;;;;;;5076652;28;20207;-65
2024/01/30 02:17:55;;;;;;;11.87;11.47;;;4.90;99.90;;;;;;5071316;28;20230;-64
2024/01/30 02:20:26;;;;;;;11.43;11.03;;;4.90;99.90;;;;;;5072181;28;20203;-65
2024/01/30 02:22:55;;;;;;;11.90;11.40;;;4.90;99.90;;;;;;5069785;28;20211;-64
2024/01/30 02:25:30;;;;;;;12.05;11.55;;;4.90;99.90;;;;;;5068640;28;20207;-65
2024/01/30 02:27:57;;;;;;;11.60;11.20;;;4.90;99.90;;;;;;5067732;28;20226;-63
2024/01/30 02:30:24;;;;;;;12.23;11.73;;;4.90;99.90;;;;;;5069335;28;20678;-64
2024/01/30 02:32:50;;;;;;;11.63;11.23;;;4.90;99.90;;;;;;5069011;28;20195;-65
2024/01/30 02:35:18;;;;;;;11.90;11.50;;;4.90;99.90;;;;;;5065808;28;20228;-64
2024/01/30 02:37:45;;;;;;;16.33;15.53;;;4.90;99.90;;;;;;5067072;28;20234;-65
2024/01/30 02:40:13;;;;;;;12.10;11.70;;;4.90;99.90;;;;;;5068797;28;20210;-67
2024/01/30 02:42:41;;;;;;;12.40;11.90;;;4.80;99.90;;;;;;5067541;28;20611;-65
2024/01/30 02:45:09;;;;;;;12.18;11.68;;;4.80;99.90;;;;;;5068920;28;20226;-65
2024/01/30 02:47:36;;;;;;;12.17;11.67;;;4.80;99.90;;;;;;5068853;28;20227;-66
2024/01/30 02:50:03;;;;;;;11.57;11.17;;;4.80;99.90;;;;;;5068930;28;20214;-65
2024/01/30 02:52:29;;;;;;;13.00;12.50;;;4.90;99.90;;;;;;5068135;28;20218;-65
2024/01/30 02:54:56;;;;;;;12.07;11.63;;;4.90;99.90;;;;;;5069420;28;20210;-65
2024/01/30 02:57:24;;;;;;;12.00;11.60;;;4.90;99.90;;;;;;5069222;28;20234;-64
2024/01/30 02:59:51;;;;;;;11.73;11.33;;;4.80;99.90;;;;;;5068830;28;20572;-64
2024/01/30 03:02:17;;;;;;;11.77;11.37;;;4.80;99.90;;;;;;5068217;28;20310;-65
2024/01/30 03:04:44;;;;;;;12.00;11.60;;;4.90;99.90;;;;;;5068669;28;20215;-65
2024/01/30 03:07:11;;;;;;;12.67;12.17;;;4.90;99.90;;;;;;5071699;28;20235;-65
2024/01/30 03:09:38;;;;;;;13.23;12.73;;;4.80;99.90;;;;;;5071935;28;20214;-64
2024/01/30 03:12:05;;;;;;;12.02;11.63;;;4.80;99.90;;;;;;5071922;28;20207;-64
2024/01/30 03:14:33;;;;;;;12.03;11.53;;;4.80;99.90;;;;;;5070266;28;20200;-64
2024/01/30 03:17:00;;;;;;;12.13;11.63;;;4.70;99.90;;;;;;5072711;28;20238;-64
2024/01/30 03:19:27;;;;;;;11.83;11.43;;;4.70;99.90;;;;;;5071884;28;20231;-64
2024/01/30 03:21:54;;;;;;;12.67;12.07;;;4.70;99.90;;;;;;5070148;28;20208;-67
2024/01/30 03:24:20;;;;;;;11.57;11.17;;;4.80;99.90;;;;;;5069911;28;20640;-64
2024/01/30 03:26:47;;;;;;;12.27;11.77;;;4.80;99.90;;;;;;5071085;28;20235;-65
2024/01/30 03:29:14;;;;;;;12.90;12.40;;;4.80;99.90;;;;;;5072221;28;20692;-64
2024/01/30 03:31:42;;;;;;;11.97;11.47;;;4.70;99.90;;;;;;5072478;28;20214;-65
2024/01/30 03:34:09;;;;;;;12.33;11.83;;;4.70;99.90;;;;;;5074149;28;20211;-65
2024/01/30 03:36:35;;;;;;;12.17;11.77;;;4.70;99.90;;;;;;5074832;28;20227;-64
2024/01/30 03:39:02;;;;;;;12.03;11.53;;;4.70;99.90;;;;;;5072686;28;20214;-64
2024/01/30 03:41:29;;;;;;;12.00;11.60;;;4.70;99.90;;;;;;5071288;28;20314;-65
2024/01/30 03:43:56;;;;;;;12.23;11.73;;;4.70;99.90;;;;;;5068664;28;20553;-66
2024/01/30 03:46:23;;;;;;;11.70;11.30;;;4.70;99.90;;;;;;5071396;28;20207;-65
2024/01/30 03:48:51;;;;;;;12.30;11.83;;;4.70;99.90;;;;;;5070775;28;20211;-65
2024/01/30 03:51:17;;;;;;;12.17;11.67;;;4.70;99.90;;;;;;5071971;28;20301;-64
2024/01/30 03:53:46;;;;;;;12.07;11.67;;;4.70;99.90;;;;;;5070485;28;20203;-67
2024/01/30 03:56:12;;;;;;;11.93;11.53;;;4.80;99.90;;;;;;5073605;28;20207;-65
2024/01/30 03:58:39;;;;;;;12.67;12.17;;;4.80;99.90;;;;;;5075207;28;20203;-65
2024/01/30 04:01:06;;;;;;;11.87;11.47;;;4.80;99.90;;;;;;5073040;28;20233;-66
2024/01/30 04:03:33;;;;;;;12.47;11.97;;;4.70;99.90;;;;;;5073949;28;20204;-65
2024/01/30 04:06:01;;;;;;;11.33;10.93;;;4.80;99.90;;;;;;5070153;28;20214;-64
2024/01/30 04:08:27;;;;;;;12.20;11.70;;;4.70;99.90;;;;;;5073434;28;20273;-65
2024/01/30 04:10:54;;;;;;;13.40;12.80;;;4.70;99.90;;;;;;5072155;28;20642;-64
2024/01/30 04:13:21;;;;;;;11.73;11.33;;;4.70;99.90;;;;;;5072972;28;20222;-67
2024/01/30 04:15:47;;;;;;;12.80;12.30;;;4.70;99.90;;;;;;5071043;28;20587;-66
2024/01/30 04:18:14;;;;;;;12.07;11.63;;;4.70;99.90;;;;;;5065543;28;20239;-64
2024/01/30 04:20:41;;;;;;;12.73;12.23;;;4.70;99.90;;;;;;5071515;28;20203;-64
2024/01/30 04:23:09;;;;;;;12.13;11.70;;;4.70;99.90;;;;;;5071372;28;20200;-67
2024/01/30 04:25:36;;;;;;;11.57;11.17;;;4.70;99.90;;;;;;5071418;28;20222;-66
2024/01/30 04:28:02;;;;;;;14.40;13.80;;;4.70;99.90;;;;;;5071144;28;20727;-65
2024/01/30 04:30:29;;;;;;;13.40;12.80;;;4.60;99.90;;;;;;5071007;28;20292;-66
2024/01/30 04:32:56;;;;;;;12.73;12.23;;;4.60;99.90;;;;;;5070490;28;20222;-66
2024/01/30 04:35:24;;;;;;;13.57;13.07;;;4.60;99.90;;;;;;5071413;28;20206;-66
2024/01/30 04:37:52;;;;;;;14.67;13.97;;;4.50;99.90;;;;;;5070139;28;20229;-67
2024/01/30 04:40:20;;;;;;;12.07;11.53;;;4.50;99.90;;;;;;5069997;28;20241;-65
2024/01/30 04:42:47;;;;;;;12.20;11.73;;;4.50;99.90;;;;;;5070212;28;20218;-66
2024/01/30 04:45:14;;;;;;;12.67;12.17;;;4.60;99.90;;;;;;5070649;28;20215;-65
2024/01/30 04:47:41;;;;;;;12.98;12.48;;;4.60;99.90;;;;;;5070281;28;20693;-65
2024/01/30 04:50:09;;;;;;;12.37;11.90;;;4.70;99.90;;;;;;5071418;28;20272;-66
2024/01/30 04:52:36;;;;;;;13.07;12.57;;;4.60;99.90;;;;;;5071373;28;20265;-65
2024/01/30 04:55:02;;;;;;;13.33;12.83;;;4.60;99.90;;;;;;5072300;28;20207;-65
2024/01/30 04:57:33;;;;;;;12.90;12.40;;;4.60;99.90;;;;;;5071892;28;20230;-65
2024/01/30 05:00:00;;;;;;;13.33;12.83;;;4.60;99.90;;;;;;5072319;28;20199;-65
2024/01/30 05:02:27;;;;;;;12.43;11.93;;;4.60;99.90;;;;;;5071269;28;20200;-66
2024/01/30 05:04:54;;;;;;;12.13;11.73;;;4.60;99.90;;;;;;5071993;28;20674;-65
2024/01/30 05:07:21;;;;;;;12.67;12.17;;;4.60;99.90;;;;;;5071664;28;20219;-64
2024/01/30 05:09:48;;;;;;;12.57;12.07;;;4.60;99.90;;;;;;5072447;28;20605;-65
2024/01/30 05:12:14;;;;;;;13.60;13.00;;;4.60;99.90;;;;;;5077581;28;20242;-65
2024/01/30 05:14:42;;;;;;;13.18;12.68;;;4.60;99.90;;;;;;5071582;28;20194;-66
2024/01/30 05:17:12;;;;;;;12.17;11.70;;;4.50;99.90;;;;;;5071670;28;20577;-65
2024/01/30 05:19:39;;;;;;;12.75;12.25;;;4.50;99.90;;;;;;5071877;28;20206;-65
2024/01/30 05:22:05;;;;;;;12.27;11.77;;;4.60;99.90;;;;;;5070627;28;20204;-65
2024/01/30 05:24:32;;;;;;;13.03;12.53;;;4.70;99.90;;;;;;5070619;28;20199;-66
2024/01/30 05:26:59;;;;;;;12.77;12.27;;;4.70;99.90;;;;;;5071081;28;20232;-65
2024/01/30 05:29:26;;;;;;;12.63;12.13;;;4.70;99.90;;;;;;5071305;28;20215;-66
2024/01/30 05:31:54;;;;;;;14.52;13.93;;;4.70;99.90;;;;;;5071255;28;20207;-66
2024/01/30 05:34:20;;;;;;;13.88;13.38;;;4.60;99.90;;;;;;5071159;28;20206;-65
2024/01/30 05:36:47;;;;;;;13.97;13.37;;;4.60;99.90;;;;;;5070385;28;20631;-64
2024/01/30 05:39:14;;;;;;;13.13;12.63;;;4.50;99.90;;;;;;5071332;28;20218;-65
2024/01/30 05:41:41;;;;;;;13.25;12.75;;;4.50;99.90;;;;;;5070489;28;20207;-66
2024/01/30 05:44:07;;;;;;;12.87;12.37;;;4.50;99.90;;;;;;5069433;28;20230;-66
2024/01/30 05:46:34;;;;;;;12.60;12.10;;;4.50;99.90;;;;;;5071771;28;20736;-64
2024/01/30 05:49:03;;;;;;;12.67;12.17;;;4.50;99.90;;;;;;5071279;28;20203;-65
2024/01/30 05:51:29;;;;;;;11.95;11.50;;;4.60;99.90;;;;;;5071636;28;20270;-64
2024/01/30 05:53:56;;;;;;;12.67;12.17;;;4.70;99.90;;;;;;5073070;28;20211;-65
2024/01/30 05:56:23;;;;;;;12.47;11.97;;;4.70;99.90;;;;;;5073234;28;20211;-67
2024/01/30 05:58:50;;;;;;;12.80;12.30;;;4.70;99.90;;;;;;5078415;28;20223;-65
2024/01/30 06:01:16;;;;;;;13.27;12.77;;;4.70;99.90;;;;;;5081954;28;20219;-64
2024/01/30 06:03:44;;;;;;;12.23;11.77;;;4.70;99.90;;;;;;5082787;28;20196;-65
2024/01/30 06:06:12;;;;;;;12.93;12.43;;;4.70;99.90;;;;;;5081269;28;20214;-64
2024/01/30 06:08:38;;;;;;;12.77;12.27;;;4.70;99.90;;;;;;5075281;28;20222;-64
2024/01/30 06:11:05;;;;;;;12.53;12.03;;;4.70;99.90;;;;;;5071738;28;20684;-64
2024/01/30 06:13:32;;;;;;;12.97;12.47;;;4.80;99.90;;;;;;5069555;28;20207;-66
2024/01/30 06:15:59;;;;;;;12.73;12.23;;;4.80;99.90;;;;;;5071784;28;20210;-65
2024/01/30 06:18:27;;;;;;;12.37;11.97;;;4.70;99.90;;;;;;5070871;28;20277;-64
2024/01/30 06:20:53;;;;;;;13.83;13.23;;;4.70;99.90;;;;;;5070939;28;20269;-65
2024/01/30 06:23:21;;;;;;;11.93;11.53;;;4.70;99.90;;;;;;5072013;28;20210;-65
2024/01/30 06:25:48;;;;;;;13.32;12.82;;;4.60;99.90;;;;;;5071592;28;20215;-66
2024/01/30 06:28:15;;;;;;;13.07;12.57;;;4.60;99.90;;;;;;5069492;28;20231;-66
2024/01/30 06:30:42;;;;;;;12.80;12.30;;;4.60;99.90;;;;;;5073560;28;20223;-64
2024/01/30 06:33:08;;;;;;;13.03;12.53;;;4.60;99.90;;;;;;5075546;28;20211;-66
2024/01/30 06:35:45;;;;;;;12.87;12.37;;;4.70;99.90;;;;;;5086119;28;20214;-65
2024/01/30 06:38:15;;;;;;;12.97;12.47;;;4.70;99.90;;;;;;5090306;28;20250;-66
2024/01/30 06:40:44;;;;;;;14.40;13.80;;;4.60;99.90;;;;;;5090546;28;20274;-67
2024/01/30 06:43:11;;;;;;;12.63;12.13;;;4.70;99.90;;;;;;5094763;28;20187;-66
2024/01/30 06:45:38;;;;;;;13.20;12.70;;;4.70;99.90;;;;;;5088469;28;20195;-64
2024/01/30 06:48:05;;;;;;;13.70;13.10;;;4.80;99.90;;;;;;5082470;28;20215;-64
2024/01/30 06:50:32;;;;;;;12.60;12.10;;;4.80;99.90;;;;;;5079443;28;20203;-64
2024/01/30 06:52:59;;;;;;;12.40;11.90;;;4.90;99.90;;;;;;5079321;28;20222;-66
2024/01/30 06:55:26;;;;;;;12.27;11.77;;;4.90;99.90;;;;;;5079899;28;20203;-64
2024/01/30 06:57:54;;;;;;;12.40;11.90;;;5.00;99.90;;;;;;5078311;28;20226;-66
2024/01/30 07:00:21;;;;;;;12.03;11.53;;;5.00;99.90;;;;;;5082689;28;20207;-65
2024/01/30 07:02:48;;;;;;;12.07;11.57;;;5.10;99.90;;;;;;5086937;28;20289;-64
2024/01/30 07:05:15;;;;;;;12.27;11.77;;;5.10;99.90;;;;;;5083488;28;20634;-64
2024/01/30 07:07:42;;;;;;;11.17;10.77;;;5.00;99.90;;;;;;5079263;28;20215;-65
2024/01/30 07:10:09;;;;;;;12.20;11.70;;;5.00;99.90;;;;;;5075095;28;20200;-65
2024/01/30 07:12:36;;;;;;;11.32;10.93;;;5.00;99.90;;;;;;5075247;28;20581;-64
2024/01/30 07:15:07;;;;;;;11.20;10.80;;;5.00;99.90;;;;;;5074842;28;20226;-64
2024/01/30 07:17:34;;;;;;;10.97;10.57;;;5.00;99.90;;;;;;5074804;28;20767;-64
2024/01/30 07:20:03;;;;;;;11.77;11.37;;;5.10;99.90;;;;;;5075490;28;20226;-65
2024/01/30 07:22:30;;;;;;;11.63;11.17;;;5.10;99.90;;;;;;5075286;28;20561;-64
2024/01/30 07:24:56;;;;;;;11.10;10.70;;;5.10;99.90;;;;;;5075338;28;20211;-64
2024/01/30 07:27:23;;;;;;;10.43;10.03;;;5.40;99.90;;;;;;5073783;28;20588;-64
2024/01/30 07:29:50;;;;;;;11.70;11.07;;;5.40;99.90;;;;;;5085828;28;20212;-64
2024/01/30 07:32:19;;;;;;;12.30;11.80;;;5.40;99.90;;;;;;5090218;28;20200;-65
2024/01/30 07:34:46;;;;;;;11.70;11.30;;;5.40;99.90;;;;;;5091629;28;20294;-66
2024/01/30 07:37:15;;;;;;;11.33;10.93;;;5.40;99.90;;;;;;5090957;28;20290;-65
2024/01/30 07:39:42;;;;;;;11.50;11.07;;;5.50;99.90;;;;;;5088281;28;20239;-64
2024/01/30 07:42:08;;;;;;;11.77;11.37;;;5.50;99.90;;;;;;5090989;28;20203;-64
2024/01/30 07:44:35;;;;;;;11.17;10.77;;;5.50;99.90;;;;;;5086922;28;20225;-65
2024/01/30 07:47:02;;;;;;;11.80;11.40;;;5.60;99.90;;;;;;5075209;28;20230;-65
2024/01/30 07:49:30;;;;;;;12.10;11.60;;;5.70;99.90;;;;;;5072417;28;20206;-64
2024/01/30 07:51:57;;;;;;;11.50;11.10;;;5.80;99.90;;;;;;5074423;28;20211;-65
2024/01/30 07:54:24;;;;;;;12.10;11.60;;;5.90;99.90;;;;;;5071911;28;20596;-64
2024/01/30 07:56:51;;;;;;;11.43;11.03;;;6.00;99.90;;;;;;5074051;28;20702;-65
2024/01/30 07:59:19;;;;;;;11.70;11.30;;;6.10;99.90;;;;;;5074397;28;20227;-65
2024/01/30 08:01:46;;;;;;;11.67;11.27;;;6.20;99.90;;;;;;5073834;28;20220;-66
2024/01/30 08:04:13;;;;;;;11.70;11.20;;;6.20;99.90;;;;;;5074252;28;20688;-65
2024/01/30 08:06:41;;;;;;;11.90;11.40;;;6.20;99.90;;;;;;5074482;28;20227;-64
2024/01/30 08:09:08;;;;;;;11.87;11.47;;;6.30;99.90;;;;;;5074356;28;20207;-65
2024/01/30 08:11:34;;;;;;;11.30;10.90;;;6.40;99.90;;;;;;5071459;28;20597;-64
2024/01/30 08:14:01;;;;;;;11.50;11.10;;;6.40;99.90;;;;;;5074010;28;20206;-64
2024/01/30 08:16:28;;;;;;;12.13;11.67;;;6.50;99.90;;;;;;5077524;28;20626;-65
2024/01/30 08:18:57;;;;;;;11.25;10.85;;;6.60;99.90;;;;;;5076509;28;20223;-65
2024/01/30 08:21:24;;;;;;;11.63;11.23;;;6.60;99.90;;;;;;5076391;28;20212;-63
2024/01/30 08:23:52;;;;;;;11.63;11.23;;;6.60;99.90;;;;;;5078944;28;20218;-64
2024/01/30 08:26:19;;;;;;;11.60;11.20;;;6.70;99.90;;;;;;5077096;28;20340;-65
2024/01/30 08:28:45;;;;;;;11.60;11.20;;;6.70;99.90;;;;;;5075785;28;20203;-65
2024/01/30 08:31:12;;;;;;;11.70;11.30;;;6.80;99.90;;;;;;5078537;28;20208;-65
2024/01/30 08:33:39;;;;;;;11.57;11.17;;;6.80;99.90;;;;;;5078097;28;20199;-64
2024/01/30 08:36:06;;;;;;;11.73;11.23;;;6.90;99.90;;;;;;5079143;28;20216;-64
2024/01/30 08:38:33;;;;;;;10.60;10.20;;;7.00;99.90;;;;;;5085022;28;20261;-64
2024/01/30 08:41:01;;;;;;;12.48;11.98;;;7.10;99.90;;;;;;5084133;28;20222;-64
2024/01/30 08:43:27;;;;;;;11.30;10.90;;;7.10;99.90;;;;;;5082896;28;20200;-64
2024/01/30 08:45:54;;;;;;;11.40;11.00;;;7.20;99.90;;;;;;5078624;28;20207;-65
2024/01/30 08:48:22;;;;;;;11.00;10.60;;;7.30;99.90;;;;;;5084085;28;20642;-65
2024/01/30 08:50:49;;;;;;;10.98;10.57;;;7.40;99.90;;;;;;5084957;28;20215;-64
2024/01/30 08:53:16;;;;;;;11.15;10.75;;;7.50;99.90;;;;;;5074003;28;20199;-65
2024/01/30 08:55:42;;;;;;;10.80;10.40;;;7.50;99.90;;;;;;5077860;28;20207;-64
2024/01/30 08:58:10;;;;;;;11.17;10.77;;;7.60;99.90;;;;;;5082628;28;20227;-66
2024/01/30 09:00:37;;;;;;;11.00;10.60;;;7.70;99.90;;;;;;5075540;28;20207;-65
2024/01/30 09:03:04;;;;;;;11.50;11.10;;;7.80;99.90;;;;;;5076004;28;20203;-66
2024/01/30 09:05:31;;;;;;;11.30;10.90;;;7.90;99.90;;;;;;5072828;28;20217;-65
2024/01/30 09:07:58;;;;;;;11.10;10.70;;;7.90;99.90;;;;;;5074807;28;20600;-65
2024/01/30 09:10:24;;;;;;;11.10;10.70;;;8.00;99.90;;;;;;5074472;28;20214;-65
2024/01/30 09:12:51;;;;;;;11.00;10.60;;;8.00;99.90;;;;;;5074330;28;20577;-65
2024/01/30 09:15:20;;;;;;;11.30;10.90;;;8.10;99.90;;;;;;5075592;28;20206;-66
2024/01/30 09:17:46;;;;;;;11.30;10.90;;;8.20;99.90;;;;;;5074605;28;20291;-64
2024/01/30 09:20:13;;;;;;;11.57;11.17;;;8.30;99.90;;;;;;5073553;28;20219;-64
2024/01/30 09:22:40;;;;;;;11.20;10.80;;;8.30;99.90;;;;;;5072366;28;20199;-65
2024/01/30 09:25:07;;;;;;;11.63;11.17;;;8.40;99.90;;;;;;5071871;28;20210;-65
2024/01/30 09:27:34;;;;;;;11.93;11.53;;;8.50;99.90;;;;;;5072154;28;20246;-65
2024/01/30 09:30:00;;;;;;;11.10;10.70;;;8.50;99.90;;;;;;5073357;28;20199;-65
2024/01/30 09:32:28;;;;;;;11.30;10.90;;;8.60;99.90;;;;;;5071629;28;20211;-64
2024/01/30 09:34:55;;;;;;;11.63;11.23;;;8.60;99.90;;;;;;5069800;28;20211;-65
2024/01/30 09:37:22;;;;;;;11.10;10.70;;;8.70;99.90;;;;;;5071841;28;20234;-64
2024/01/30 09:39:49;;;;;;;11.33;10.93;;;8.80;99.90;;;;;;5070475;28;20721;-64
2024/01/30 09:42:25;;;;;;;11.43;11.02;;;8.80;99.90;;;;;;5069502;28;20203;-64
2024/01/30 09:44:52;;;;;;;11.10;10.70;;;8.90;99.90;;;;;;5071502;28;20199;-65
2024/01/30 09:47:19;;;;;;;11.80;11.40;;;9.00;99.90;;;;;;5072663;28;20223;-64
2024/01/30 09:49:48;;;;;;;11.20;10.80;;;9.10;99.90;;;;;;5071316;28;20203;-64
2024/01/30 09:52:16;;;;;;;11.73;11.33;;;9.20;99.90;;;;;;5074523;28;20207;-64
2024/01/30 09:54:43;;;;;;;11.57;11.17;;;9.30;99.90;;;;;;5082607;28;20199;-65
2024/01/30 09:57:09;;;;;;;11.97;11.57;;;9.40;99.90;;;;;;5079724;28;20646;-64
2024/01/30 09:59:36;;;;;;;11.43;11.03;;;9.40;99.90;;;;;;5070915;28;20234;-67
2024/01/30 10:02:04;;;;;;;12.20;11.80;;;9.50;99.90;;;;;;5070634;28;20199;-65
2024/01/30 10:04:30;;;;;;;12.73;12.23;;;9.60;99.90;;;;;;5071131;28;20568;-64
2024/01/30 10:07:01;;;;;;;12.37;11.97;;;9.70;99.90;;;;;;5070628;28;20241;-64
2024/01/30 10:09:27;;;;;;;11.60;11.20;;;9.90;99.90;;;;;;5070671;28;20199;-66
2024/01/30 10:11:54;;;;;;;12.83;12.33;;;10.00;99.90;;;;;;5067358;28;20590;-66
2024/01/30 10:14:21;;;;;;;12.25;11.85;;;10.10;99.90;;;;;;5077511;28;20210;-65
2024/01/30 10:16:48;;;;;;;12.90;12.40;;;10.20;99.90;;;;;;5080788;28;20294;-64
2024/01/30 10:19:14;;;;;;;12.37;11.97;;;10.30;99.90;;;;;;5077478;28;20227;-65
2024/01/30 10:21:41;;;;;;;11.80;11.40;;;10.30;99.90;;;;;;5070771;28;20214;-65
2024/01/30 10:24:12;;;;;;;11.82;11.40;;;10.40;99.90;;;;;;5074862;28;20211;-65
2024/01/30 10:26:39;;;;;;;11.57;11.17;;;10.50;99.90;;;;;;5075351;28;20648;-65
2024/01/30 10:29:06;;;;;;;11.40;11.00;;;10.60;99.90;;;;;;5075413;28;20203;-65
2024/01/30 10:31:32;;;;;;;11.83;11.43;;;10.70;99.90;;;;;;5074224;28;20213;-65
2024/01/30 10:33:59;;;;;;;11.90;11.50;;;10.70;99.90;;;;;;5074722;28;20294;-64
2024/01/30 10:36:29;;;;;;;11.73;11.33;;;10.80;99.90;;;;;;5074886;28;20207;-64
2024/01/30 10:39:00;;;;;;;11.60;11.20;;;10.90;99.90;;;;;;5072373;28;20223;-65
2024/01/30 10:41:32;;;;;;;11.30;10.90;;;11.10;99.90;;;;;;5074500;28;20199;-66
2024/01/30 10:44:03;;;;;;;11.93;11.53;;;11.10;99.90;;;;;;5072506;28;20298;-64
2024/01/30 10:46:33;;;;;;;11.17;10.77;;;11.20;99.90;;;;;;5074630;28;20296;-64
2024/01/30 10:49:01;;;;;;;11.40;11.00;;;11.30;99.90;;;;;;5072366;28;20195;-65
2024/01/30 10:51:29;;;;;;;11.20;10.80;;;11.40;99.90;;;;;;5073933;28;20203;-66
2024/01/30 10:53:57;;;;;;;12.10;11.60;;;11.60;99.90;;;;;;5074582;28;20233;-65
2024/01/30 10:56:25;;;;;;;11.77;11.37;;;11.70;99.90;;;;;;5075377;28;20203;-65
2024/01/30 10:58:54;;;;;;;11.77;11.38;;;11.80;99.90;;;;;;5074732;28;20223;-65
2024/01/30 11:01:22;;;;;;;12.27;11.77;;;11.90;99.90;;;;;;5073757;28;20218;-66
2024/01/30 11:03:50;;;;;;;12.90;12.40;;;12.00;99.90;;;;;;5074059;28;20279;-65
2024/01/30 11:06:18;;;;;;;12.83;12.33;;;12.10;99.90;;;;;;5075330;28;20745;-64
2024/01/30 11:08:46;;;;;;;12.00;11.50;;;12.20;99.90;;;;;;5074412;28;20592;-65
2024/01/30 11:11:13;;;;;;;11.90;11.50;;;12.30;99.90;;;;;;5076611;28;20239;-67
2024/01/30 11:13:41;;;;;;;11.80;11.40;;;12.40;99.90;;;;;;5078167;28;20196;-66
2024/01/30 11:16:12;;;;;;;11.93;11.53;;;12.60;99.90;;;;;;5079810;28;20211;-66
2024/01/30 11:18:39;;;;;;;12.53;12.13;;;12.80;99.90;;;;;;5084132;28;20254;-65
2024/01/30 11:21:06;;;;;;;11.97;11.57;;;12.80;99.90;;;;;;5085357;28;20212;-66
2024/01/30 11:23:34;;;;;;;12.43;11.90;;;12.90;99.90;;;;;;5086957;28;20208;-66
2024/01/30 11:26:02;;;;;;;12.53;12.13;;;12.90;99.90;;;;;;5086566;28;20213;-65
2024/01/30 11:28:34;;;;;;;12.50;12.10;;;12.90;99.90;;;;;;5079984;28;20242;-65
2024/01/30 11:31:04;;;;;;;12.88;12.38;;;13.00;99.90;;;;;;5077661;28;20200;-65
2024/01/30 11:33:33;;;;;;;12.07;11.67;;;13.00;99.90;;;;;;5078225;28;20208;-65
2024/01/30 11:36:01;;;;;;;12.00;11.60;;;12.90;99.90;;;;;;5081298;28;20203;-65
2024/01/30 11:38:29;;;;;;;14.45;13.95;;;12.90;99.90;;;;;;5082310;28;20227;-64
2024/01/30 11:40:57;;;;;;;12.93;12.43;;;12.90;99.90;;;;;;5079337;28;20513;-64
2024/01/30 11:43:24;;;;;;;13.35;12.85;;;12.80;99.90;;;;;;5082283;28;20204;-64
2024/01/30 11:45:51;;;;;;;12.18;11.77;;;12.70;99.90;;;;;;5075135;28;20223;-64
2024/01/30 11:48:18;;;;;;;12.82;12.32;;;12.60;99.90;;;;;;5074014;28;20307;-64
2024/01/30 11:50:47;;;;;;;12.70;12.20;;;12.50;99.90;;;;;;5074633;28;20203;-65
2024/01/30 11:53:14;;;;;;;12.53;12.00;;;12.40;99.90;;;;;;5071991;28;20666;-66
2024/01/30 11:55:40;;;;;;;12.40;11.90;;;12.50;99.90;;;;;;5074092;28;20784;-65
2024/01/30 11:58:07;;;;;;;12.10;11.70;;;12.60;99.90;;;;;;5074124;28;20223;-66
2024/01/30 12:00:35;;;;;;;12.43;12.03;;;12.50;99.90;;;;;;5071530;28;20275;-64
2024/01/30 12:03:02;;;;;;;11.70;11.20;;;12.60;99.90;;;;;;5073410;28;20199;-65
2024/01/30 12:05:30;;;;;;;11.97;11.57;;;12.60;99.90;;;;;;5073973;28;20558;-66
2024/01/30 12:07:58;;;;;;;12.33;11.93;;;12.70;99.90;;;;;;5073840;28;20687;-64
2024/01/30 12:10:26;;;;;;;12.90;12.40;;;12.70;99.90;;;;;;5074300;28;20203;-64
2024/01/30 12:12:54;;;;;;;13.13;12.63;;;12.70;99.90;;;;;;5073641;28;20598;-63
2024/01/30 12:15:23;;;;;;;12.27;11.77;;;12.70;99.90;;;;;;5074056;28;20557;-66
2024/01/30 12:17:49;;;;;;;12.93;12.43;;;12.70;99.90;;;;;;5072910;28;20701;-64
2024/01/30 12:20:19;;;;;;;13.60;13.10;;;12.70;99.90;;;;;;5071486;28;20701;-65
2024/01/30 12:22:47;;;;;;;13.90;13.40;;;12.80;99.90;;;;;;5073430;28;20199;-65
2024/01/30 12:25:17;;;;;;;13.07;12.57;;;12.80;99.90;;;;;;5073666;28;20207;-65
2024/01/30 12:27:46;;;;;;;13.50;13.00;;;12.90;99.90;;;;;;5073085;28;20262;-66
2024/01/30 12:30:14;;;;;;;14.03;13.53;;;12.90;99.90;;;;;;5073711;28;20199;-66
2024/01/30 12:32:43;;;;;;;14.40;13.90;;;12.90;99.90;;;;;;5072761;28;20195;-65
2024/01/30 12:35:11;;;;;;;14.40;13.90;;;13.00;99.90;;;;;;5072885;28;20201;-64